Time;durP1;ratioP1;P1;durP2;ratioP2;P2;SDS_P1;SDS_P2;PMS_P1;PMS_P2;Temp;Humidity;BMP_temperature;BMP_pressure;BME280_temperature;BME280_humidity;BME280_pressure;Samples;Min_cycle;Max_cycle;Signal;HPM_P1;HPM_P2
2023/11/19 00:01:08;;;;;;;12.40;9.00;;;8.50;99.90;;;;;;5007514;28;20038;-50
2023/11/19 00:03:34;;;;;;;11.48;8.43;;;8.60;99.90;;;;;;5007593;28;20030;-50
2023/11/19 00:06:01;;;;;;;13.30;8.10;;;8.60;99.90;;;;;;5007377;28;20176;-51
2023/11/19 00:08:27;;;;;;;10.65;6.90;;;8.60;99.90;;;;;;5006292;28;20389;-50
2023/11/19 00:10:52;;;;;;;11.57;8.07;;;8.60;99.90;;;;;;5005860;28;20032;-55
2023/11/19 00:13:18;;;;;;;15.30;8.02;;;8.60;99.90;;;;;;5006164;28;20033;-48
2023/11/19 00:15:45;;;;;;;12.65;7.93;;;8.60;99.90;;;;;;5006128;28;20078;-55
2023/11/19 00:18:10;;;;;;;11.18;8.70;;;8.60;99.90;;;;;;5005916;28;20029;-48
2023/11/19 00:20:36;;;;;;;9.70;7.85;;;8.60;99.90;;;;;;5006440;28;20036;-50
2023/11/19 00:23:02;;;;;;;11.30;7.93;;;8.60;99.90;;;;;;5006134;28;20065;-49
2023/11/19 00:25:28;;;;;;;12.27;8.07;;;8.60;99.90;;;;;;5004763;28;20148;-50
2023/11/19 00:27:53;;;;;;;9.70;7.97;;;8.60;99.90;;;;;;5005966;28;20513;-49
2023/11/19 00:30:19;;;;;;;10.60;7.95;;;8.60;99.90;;;;;;5005939;28;20026;-49
2023/11/19 00:32:45;;;;;;;12.50;8.27;;;8.60;99.90;;;;;;5005748;28;20029;-53
2023/11/19 00:35:11;;;;;;;10.48;7.57;;;8.60;99.90;;;;;;5007637;28;20480;-55
2023/11/19 00:37:36;;;;;;;11.65;8.35;;;8.60;99.90;;;;;;5008751;28;20034;-51
2023/11/19 00:40:05;;;;;;;13.27;8.23;;;8.60;99.90;;;;;;5008194;28;20030;-55
2023/11/19 00:42:30;;;;;;;9.30;8.10;;;8.70;99.90;;;;;;5008641;28;20067;-52
2023/11/19 00:44:56;;;;;;;12.27;9.10;;;8.70;99.90;;;;;;5008735;28;20033;-54
2023/11/19 00:47:22;;;;;;;12.27;8.20;;;8.70;99.90;;;;;;5006999;28;20038;-51
2023/11/19 00:49:51;;;;;;;10.90;9.27;;;8.70;99.90;;;;;;5008682;28;20540;-55
2023/11/19 00:52:17;;;;;;;10.07;8.10;;;8.60;99.90;;;;;;5008415;28;20417;-54
2023/11/19 00:54:43;;;;;;;9.75;8.07;;;8.60;99.90;;;;;;5008657;28;20393;-55
2023/11/19 00:57:08;;;;;;;10.32;8.02;;;8.70;99.90;;;;;;5008444;28;20030;-53
2023/11/19 00:59:34;;;;;;;10.60;9.00;;;8.60;99.90;;;;;;5007524;28;20022;-55
2023/11/19 01:02:04;;;;;;;10.27;8.98;;;8.60;99.90;;;;;;5006983;28;20496;-55
2023/11/19 01:04:33;;;;;;;10.13;8.40;;;8.70;99.90;;;;;;5008437;28;20029;-56
2023/11/19 01:06:59;;;;;;;10.43;7.97;;;8.70;99.90;;;;;;5006855;28;20080;-54
2023/11/19 01:09:26;;;;;;;13.27;7.90;;;8.70;99.90;;;;;;5026662;23;20425;-51
2023/11/19 01:11:52;;;;;;;8.60;7.50;;;8.70;99.90;;;;;;5008456;28;20019;-47
2023/11/19 01:14:17;;;;;;;11.55;8.20;;;8.70;99.90;;;;;;4991470;28;20026;-47
2023/11/19 01:16:43;;;;;;;27.40;15.15;;;8.70;99.90;;;;;;4991028;28;20022;-49
2023/11/19 01:19:08;;;;;;;63.38;33.78;;;8.70;99.90;;;;;;4993547;28;20037;-47
2023/11/19 01:21:34;;;;;;;10.98;8.55;;;8.70;99.90;;;;;;5008405;28;20033;-47
2023/11/19 01:23:59;;;;;;;13.55;8.82;;;8.70;99.90;;;;;;5007110;28;20045;-47
2023/11/19 01:26:25;;;;;;;9.70;7.97;;;8.70;99.90;;;;;;5008532;28;20030;-46
2023/11/19 01:28:52;;;;;;;10.90;7.97;;;8.70;99.90;;;;;;5008467;28;20380;-45
2023/11/19 01:31:18;;;;;;;11.70;8.60;;;8.70;99.90;;;;;;5006988;28;20071;-49
2023/11/19 01:33:43;;;;;;;10.48;8.38;;;8.80;99.90;;;;;;5008261;28;20033;-52
2023/11/19 01:36:12;;;;;;;8.57;7.70;;;8.80;99.90;;;;;;5008586;28;20030;-45
2023/11/19 01:38:38;;;;;;;11.35;7.82;;;8.80;99.90;;;;;;5006906;28;20030;-52
2023/11/19 01:41:03;;;;;;;8.98;7.35;;;8.80;99.90;;;;;;5008128;28;20022;-49
2023/11/19 01:43:36;;;;;;;8.50;7.57;;;8.80;99.90;;;;;;5008167;28;20034;-48
2023/11/19 01:46:03;;;;;;;10.70;7.80;;;8.80;99.90;;;;;;5008436;28;20037;-52
2023/11/19 01:48:29;;;;;;;9.25;7.63;;;8.80;99.90;;;;;;5008396;28;20022;-48
2023/11/19 01:50:56;;;;;;;9.90;7.57;;;8.90;99.90;;;;;;5007958;28;20026;-49
2023/11/19 01:53:22;;;;;;;9.88;7.88;;;8.90;99.90;;;;;;5010709;28;20091;-49
2023/11/19 01:55:48;;;;;;;8.75;7.30;;;8.90;99.90;;;;;;5011314;28;20461;-48
2023/11/19 01:58:14;;;;;;;8.73;7.63;;;8.90;99.90;;;;;;5011187;28;20490;-49
2023/11/19 02:00:40;;;;;;;8.85;7.85;;;8.80;99.90;;;;;;5011197;28;20452;-48
2023/11/19 02:03:08;;;;;;;13.30;7.75;;;8.90;99.90;;;;;;5011096;28;20034;-46
2023/11/19 02:05:35;;;;;;;7.72;6.47;;;8.90;99.90;;;;;;5010015;28;20091;-49
2023/11/19 02:08:01;;;;;;;10.57;7.28;;;8.90;99.90;;;;;;5011059;28;20022;-50
2023/11/19 02:10:26;;;;;;;7.72;6.30;;;8.90;99.90;;;;;;5011112;28;20477;-46
2023/11/19 02:12:52;;;;;;;9.48;7.20;;;8.90;99.90;;;;;;5011054;28;20037;-46
2023/11/19 02:15:22;;;;;;;7.18;6.47;;;8.90;99.90;;;;;;5011254;28;20026;-48
2023/11/19 02:17:47;;;;;;;7.28;6.55;;;8.90;99.90;;;;;;5011016;28;20026;-53
2023/11/19 02:20:14;;;;;;;8.10;6.55;;;8.90;99.90;;;;;;5009637;28;20046;-51
2023/11/19 02:22:40;;;;;;;6.85;6.05;;;8.90;99.90;;;;;;5009471;28;20040;-48
2023/11/19 02:25:32;;;;;;;7.97;6.53;;;8.90;99.90;;;;;;5009591;28;20121;-47
2023/11/19 02:28:00;;;;;;;6.43;5.80;;;9.00;99.90;;;;;;5009660;28;20041;-54
2023/11/19 02:30:26;;;;;;;6.10;5.50;;;9.00;99.90;;;;;;5009926;28;20072;-47
2023/11/19 02:33:10;;;;;;;6.03;5.40;;;9.00;99.90;;;;;;5011059;28;20501;-52
2023/11/19 02:35:35;;;;;;;9.48;5.70;;;9.10;99.90;;;;;;5010952;28;20029;-52
2023/11/19 02:38:01;;;;;;;6.07;5.47;;;9.10;99.90;;;;;;5010663;28;20101;-48
2023/11/19 02:40:27;;;;;;;6.35;5.82;;;9.10;99.90;;;;;;5010553;28;20053;-50
2023/11/19 02:42:55;;;;;;;6.80;5.55;;;9.20;99.90;;;;;;5010418;28;20370;-47
2023/11/19 02:45:24;;;;;;;5.75;5.15;;;9.20;99.90;;;;;;5010633;28;20038;-53
2023/11/19 02:47:51;;;;;;;6.25;5.63;;;9.20;99.90;;;;;;5010440;28;20443;-51
2023/11/19 02:50:24;;;;;;;5.47;4.63;;;9.20;99.90;;;;;;5010568;28;20067;-52
2023/11/19 02:52:53;;;;;;;7.18;5.22;;;9.30;99.90;;;;;;5010299;28;20044;-48
2023/11/19 02:55:19;;;;;;;5.13;4.63;;;9.30;99.90;;;;;;5010667;28;20049;-50
2023/11/19 02:57:51;;;;;;;5.50;4.63;;;9.30;99.90;;;;;;5010306;28;20025;-49
2023/11/19 03:00:25;;;;;;;11.75;4.15;;;9.30;99.90;;;;;;5010555;28;20022;-52
2023/11/19 03:02:59;;;;;;;8.05;4.15;;;9.40;99.90;;;;;;5009688;28;20025;-51
2023/11/19 03:05:25;;;;;;;6.03;4.50;;;9.40;99.90;;;;;;5010220;28;20082;-52
2023/11/19 03:07:51;;;;;;;5.22;4.72;;;9.40;99.90;;;;;;5010019;28;20469;-49
2023/11/19 03:10:17;;;;;;;4.00;3.70;;;9.40;99.90;;;;;;5010157;28;20173;-51
2023/11/19 03:12:45;;;;;;;4.03;3.72;;;9.40;99.90;;;;;;5008737;28;20065;-49
2023/11/19 03:15:11;;;;;;;4.45;4.05;;;9.40;99.90;;;;;;5010159;28;20389;-51
2023/11/19 03:17:39;;;;;;;4.78;4.05;;;9.40;99.90;;;;;;5010052;28;20074;-48
2023/11/19 03:20:09;;;;;;;5.75;3.72;;;9.40;99.90;;;;;;5009959;28;20057;-47
2023/11/19 03:22:38;;;;;;;4.75;3.90;;;9.40;99.90;;;;;;5009936;28;20057;-46
2023/11/19 03:25:04;;;;;;;4.10;3.80;;;9.50;99.90;;;;;;5010011;28;20026;-52
2023/11/19 03:27:29;;;;;;;4.60;3.83;;;9.50;99.90;;;;;;5009802;28;20379;-50
2023/11/19 03:29:55;;;;;;;4.00;3.70;;;9.50;99.90;;;;;;5009858;28;20071;-50
2023/11/19 03:32:20;;;;;;;3.72;3.42;;;9.40;99.90;;;;;;5009494;28;20030;-47
2023/11/19 03:34:46;;;;;;;3.95;3.10;;;9.40;99.90;;;;;;5009672;28;20038;-53
2023/11/19 03:37:13;;;;;;;3.10;2.90;;;9.40;99.90;;;;;;5009720;28;20022;-48
2023/11/19 03:39:38;;;;;;;3.00;2.67;;;9.40;99.90;;;;;;5009719;28;20030;-50
2023/11/19 03:42:04;;;;;;;4.97;3.30;;;9.50;99.90;;;;;;5009590;28;20037;-49
2023/11/19 03:44:29;;;;;;;5.68;2.97;;;9.40;99.90;;;;;;5009627;28;20109;-47
2023/11/19 03:46:55;;;;;;;4.72;3.05;;;9.50;99.90;;;;;;5009489;28;20022;-51
2023/11/19 03:49:20;;;;;;;5.25;3.25;;;9.50;99.90;;;;;;5009372;28;20045;-52
2023/11/19 03:51:46;;;;;;;2.72;2.53;;;9.50;99.90;;;;;;5009317;28;20498;-51
2023/11/19 03:54:12;;;;;;;3.85;2.80;;;9.50;99.90;;;;;;5009572;28;20156;-47
2023/11/19 03:56:38;;;;;;;2.60;2.38;;;9.50;99.90;;;;;;5008181;28;20108;-50
2023/11/19 03:59:03;;;;;;;3.22;2.70;;;9.60;99.90;;;;;;5009543;28;20101;-49
2023/11/19 04:01:29;;;;;;;4.13;2.72;;;9.60;99.90;;;;;;5009264;28;20034;-47
2023/11/19 04:03:55;;;;;;;2.67;2.35;;;9.70;99.90;;;;;;5007978;28;20153;-48
2023/11/19 04:06:21;;;;;;;4.50;2.78;;;9.60;99.90;;;;;;5009382;28;20032;-51
2023/11/19 04:08:46;;;;;;;2.72;2.20;;;9.70;99.90;;;;;;5009082;28;20508;-51
2023/11/19 04:11:12;;;;;;;5.45;2.42;;;9.70;99.90;;;;;;5009127;28;20105;-49
2023/11/19 04:13:37;;;;;;;2.70;2.45;;;9.70;99.90;;;;;;5009123;28;20026;-50
2023/11/19 04:16:04;;;;;;;5.13;2.38;;;9.70;99.90;;;;;;5008490;28;20045;-48
2023/11/19 04:18:29;;;;;;;2.85;2.45;;;9.80;99.90;;;;;;5009114;28;20027;-53
2023/11/19 04:20:56;;;;;;;3.42;2.65;;;9.80;99.90;;;;;;5008953;28;20423;-46
2023/11/19 04:23:21;;;;;;;6.10;3.22;;;9.70;99.90;;;;;;5009226;28;20101;-47
2023/11/19 04:25:47;;;;;;;3.67;2.50;;;9.70;99.90;;;;;;5009123;28;20171;-46
2023/11/19 04:28:12;;;;;;;8.35;2.45;;;9.70;99.90;;;;;;5008939;28;20032;-49
2023/11/19 04:30:37;;;;;;;4.30;2.88;;;9.80;99.90;;;;;;5009003;28;20022;-50
2023/11/19 04:33:03;;;;;;;2.85;2.60;;;9.80;99.90;;;;;;5008623;28;20489;-49
2023/11/19 04:35:28;;;;;;;5.15;2.60;;;9.80;99.90;;;;;;5007603;28;20053;-50
2023/11/19 04:37:57;;;;;;;2.78;2.58;;;9.80;99.90;;;;;;5008882;28;20065;-50
2023/11/19 04:40:22;;;;;;;3.67;2.63;;;9.80;99.90;;;;;;5008830;28;20018;-52
2023/11/19 04:42:48;;;;;;;4.47;2.50;;;9.80;99.90;;;;;;5007487;28;20036;-49
2023/11/19 04:45:16;;;;;;;4.38;2.75;;;9.80;99.90;;;;;;5008909;28;20025;-47
2023/11/19 04:47:42;;;;;;;3.67;2.88;;;9.90;99.90;;;;;;5008759;28;20033;-48
2023/11/19 04:50:10;;;;;;;2.63;2.35;;;9.90;99.90;;;;;;5008672;28;20030;-51
2023/11/19 04:52:38;;;;;;;2.65;2.38;;;9.90;99.90;;;;;;5008486;28;20014;-51
2023/11/19 04:55:04;;;;;;;4.28;2.30;;;9.90;99.90;;;;;;5008668;28;20412;-50
2023/11/19 04:57:29;;;;;;;3.13;2.60;;;9.90;99.90;;;;;;5008641;28;20022;-54
2023/11/19 04:59:55;;;;;;;3.08;2.50;;;9.90;99.90;;;;;;5008506;28;20393;-48
2023/11/19 05:02:20;;;;;;;4.10;2.33;;;9.90;99.90;;;;;;5008314;28;20079;-51
2023/11/19 05:04:46;;;;;;;3.58;2.17;;;9.90;99.90;;;;;;5008489;28;20448;-51
2023/11/19 05:07:12;;;;;;;4.97;2.75;;;9.90;99.90;;;;;;5008423;28;20018;-50
2023/11/19 05:09:37;;;;;;;3.53;2.40;;;10.00;99.90;;;;;;5008173;28;20108;-54
2023/11/19 05:12:03;;;;;;;4.30;2.20;;;9.90;99.90;;;;;;5008312;28;20040;-47
2023/11/19 05:14:28;;;;;;;2.50;2.30;;;10.00;99.90;;;;;;5008352;28;20549;-49
2023/11/19 05:16:54;;;;;;;2.42;2.22;;;10.00;99.90;;;;;;5008271;28;20485;-50
2023/11/19 05:19:19;;;;;;;2.20;2.10;;;10.00;99.90;;;;;;5008233;28;20036;-51
2023/11/19 05:21:45;;;;;;;4.57;2.63;;;9.90;99.90;;;;;;5008359;28;20030;-52
2023/11/19 05:24:14;;;;;;;2.58;1.98;;;9.90;99.90;;;;;;5008851;28;20072;-47
2023/11/19 05:26:40;;;;;;;2.60;2.30;;;9.90;99.90;;;;;;5010163;28;20489;-45
2023/11/19 05:29:05;;;;;;;2.30;2.10;;;9.90;99.90;;;;;;5011612;28;20030;-46
2023/11/19 05:31:31;;;;;;;2.05;1.95;;;10.00;99.90;;;;;;5011549;28;20063;-48
2023/11/19 05:33:56;;;;;;;2.45;1.95;;;10.00;99.90;;;;;;5011587;28;20021;-49
2023/11/19 05:36:22;;;;;;;2.15;1.88;;;10.00;99.90;;;;;;5011675;28;20026;-45
2023/11/19 05:38:47;;;;;;;3.33;1.80;;;10.00;99.90;;;;;;5011908;28;20041;-46
2023/11/19 05:41:13;;;;;;;3.13;1.77;;;10.00;99.90;;;;;;5011647;28;20026;-47
2023/11/19 05:43:40;;;;;;;1.67;1.50;;;10.10;99.90;;;;;;5011688;28;20021;-47
2023/11/19 05:46:06;;;;;;;1.42;1.33;;;10.10;99.90;;;;;;5011633;28;20022;-47
2023/11/19 05:48:32;;;;;;;1.42;1.10;;;10.20;99.90;;;;;;5011306;28;20109;-47
2023/11/19 05:50:57;;;;;;;2.97;2.13;;;10.20;99.90;;;;;;5011289;28;20057;-48
2023/11/19 05:53:23;;;;;;;1.40;1.30;;;10.30;99.90;;;;;;5010389;28;20026;-47
2023/11/19 05:55:54;;;;;;;1.42;1.30;;;10.30;99.90;;;;;;5011568;28;20049;-46
2023/11/19 05:58:23;;;;;;;1.65;1.55;;;10.30;99.90;;;;;;5011939;28;20079;-48
2023/11/19 06:00:50;;;;;;;1.40;1.40;;;10.30;99.90;;;;;;5011224;28;20108;-47
2023/11/19 06:03:16;;;;;;;1.50;1.40;;;10.40;99.90;;;;;;5011190;28;20389;-46
2023/11/19 06:05:45;;;;;;;1.05;1.05;;;10.40;99.90;;;;;;5011404;28;20022;-49
2023/11/19 06:08:11;;;;;;;1.70;1.60;;;10.40;99.90;;;;;;5011184;28;20041;-47
2023/11/19 06:10:39;;;;;;;1.83;1.73;;;10.50;99.90;;;;;;5011142;28;20034;-46
2023/11/19 06:13:05;;;;;;;1.60;1.50;;;10.50;99.90;;;;;;5010778;28;20481;-47
2023/11/19 06:15:31;;;;;;;4.45;1.55;;;10.50;99.90;;;;;;5009902;28;20030;-49
2023/11/19 06:17:59;;;;;;;3.30;1.73;;;10.60;99.90;;;;;;5010892;28;20105;-53
2023/11/19 06:20:25;;;;;;;1.80;1.70;;;10.60;99.90;;;;;;5010906;28;20024;-49
2023/11/19 06:22:50;;;;;;;2.20;1.88;;;10.60;99.90;;;;;;5010703;28;20421;-54
2023/11/19 06:25:16;;;;;;;7.93;1.90;;;10.70;99.90;;;;;;5010911;28;20462;-52
2023/11/19 06:27:42;;;;;;;1.77;1.67;;;10.70;99.90;;;;;;5010704;28;20119;-49
2023/11/19 06:30:08;;;;;;;2.15;1.90;;;10.70;99.90;;;;;;5010634;28;20080;-50
2023/11/19 06:32:34;;;;;;;2.50;1.70;;;10.70;99.90;;;;;;5010632;28;20071;-52
2023/11/19 06:34:59;;;;;;;2.33;2.13;;;10.80;99.90;;;;;;5010805;28;20435;-49
2023/11/19 06:37:25;;;;;;;2.03;1.83;;;10.80;99.90;;;;;;5009880;28;20428;-54
2023/11/19 06:39:50;;;;;;;1.95;1.85;;;10.80;99.90;;;;;;5010533;28;20030;-53
2023/11/19 06:42:17;;;;;;;3.78;1.85;;;10.80;99.90;;;;;;5010512;28;20037;-48
2023/11/19 06:44:42;;;;;;;1.83;1.73;;;10.80;99.90;;;;;;5010715;28;20018;-48
2023/11/19 06:47:08;;;;;;;2.10;1.88;;;10.80;99.90;;;;;;5010843;28;20439;-46
2023/11/19 06:49:33;;;;;;;1.95;1.85;;;10.80;99.90;;;;;;5010777;28;20026;-52
2023/11/19 06:51:59;;;;;;;2.20;2.00;;;10.80;99.90;;;;;;5011294;28;20022;-46
2023/11/19 06:54:25;;;;;;;3.55;2.03;;;10.90;99.90;;;;;;5012535;28;20022;-51
2023/11/19 06:56:51;;;;;;;1.90;1.70;;;10.90;99.90;;;;;;5011354;28;20378;-47
2023/11/19 06:59:16;;;;;;;2.55;1.73;;;10.90;99.90;;;;;;5010805;28;20022;-48
2023/11/19 07:01:43;;;;;;;1.85;1.75;;;10.90;99.90;;;;;;5010144;28;20564;-52
2023/11/19 07:04:12;;;;;;;3.33;2.20;;;10.90;99.90;;;;;;5010630;28;20101;-53
2023/11/19 07:06:37;;;;;;;2.05;1.95;;;10.90;99.90;;;;;;5010297;28;20125;-51
2023/11/19 07:11:31;;;;;;;2.85;1.83;;;10.90;99.90;;;;;;4967642;28;20046;-54
2023/11/19 07:13:57;;;;;;;4.18;2.28;;;10.90;99.90;;;;;;4972315;28;20019;-52
2023/11/19 07:16:22;;;;;;;2.40;2.20;;;10.90;99.90;;;;;;4971692;28;20027;-53
2023/11/19 07:18:49;;;;;;;3.22;2.58;;;10.80;99.90;;;;;;4971555;28;20069;-54
2023/11/19 07:21:15;;;;;;;4.35;2.10;;;10.90;99.90;;;;;;4971406;28;20031;-52
2023/11/19 07:23:41;;;;;;;2.40;2.20;;;10.90;99.90;;;;;;4970299;28;20023;-53
2023/11/19 07:26:09;;;;;;;2.58;2.40;;;11.00;99.90;;;;;;4971414;28;20037;-55
2023/11/19 07:28:35;;;;;;;2.55;2.35;;;11.10;99.90;;;;;;4971275;28;20031;-54
2023/11/19 07:31:01;;;;;;;3.08;2.60;;;11.10;99.90;;;;;;4969799;28;20019;-52
2023/11/19 07:33:27;;;;;;;2.40;2.20;;;11.10;99.90;;;;;;4971183;28;20023;-51
2023/11/19 07:35:53;;;;;;;3.22;2.30;;;11.10;99.90;;;;;;4971445;28;20019;-51
2023/11/19 07:38:19;;;;;;;3.03;2.65;;;11.10;99.90;;;;;;4971408;28;20031;-49
2023/11/19 07:40:44;;;;;;;4.72;2.13;;;11.20;99.90;;;;;;4971222;28;20027;-49
2023/11/19 07:43:10;;;;;;;2.55;2.30;;;11.20;99.90;;;;;;4970981;28;20106;-52
2023/11/19 07:45:36;;;;;;;2.75;2.55;;;11.30;99.90;;;;;;4971132;28;20037;-52
2023/11/19 07:48:02;;;;;;;3.13;2.75;;;11.20;99.90;;;;;;4970787;28;20440;-50
2023/11/19 07:50:27;;;;;;;5.25;2.65;;;11.30;99.90;;;;;;4971128;28;20479;-54
2023/11/19 07:52:53;;;;;;;4.03;2.50;;;11.30;99.90;;;;;;4969784;28;20057;-50
2023/11/19 07:55:19;;;;;;;2.90;2.45;;;11.30;99.90;;;;;;4971119;28;20029;-53
2023/11/19 07:57:45;;;;;;;5.38;2.65;;;11.30;99.90;;;;;;4970830;28;20019;-49
2023/11/19 08:00:12;;;;;;;4.68;2.63;;;11.30;99.90;;;;;;4970453;28;20031;-50
2023/11/19 08:02:38;;;;;;;5.20;2.70;;;11.30;99.90;;;;;;4970514;28;20072;-50
2023/11/19 08:05:04;;;;;;;3.17;2.88;;;11.40;99.90;;;;;;4970894;28;20225;-52
2023/11/19 08:07:30;;;;;;;6.22;3.08;;;11.40;99.90;;;;;;4970970;28;20033;-54
2023/11/19 08:09:56;;;;;;;3.55;2.65;;;11.50;99.90;;;;;;4970551;28;20039;-52
2023/11/19 08:12:21;;;;;;;5.55;3.20;;;11.50;99.90;;;;;;4970672;28;20034;-49
2023/11/19 08:14:47;;;;;;;2.83;2.38;;;11.50;99.90;;;;;;4970691;28;20113;-51
2023/11/19 08:17:12;;;;;;;3.50;2.50;;;11.50;99.90;;;;;;4970535;28;20073;-50
2023/11/19 08:19:38;;;;;;;2.90;2.60;;;11.60;99.90;;;;;;4971026;28;20096;-50
2023/11/19 08:22:04;;;;;;;2.50;2.25;;;11.60;99.90;;;;;;4970500;28;20061;-51
2023/11/19 08:24:30;;;;;;;3.08;2.33;;;11.60;99.90;;;;;;4970550;28;20034;-52
2023/11/19 08:26:55;;;;;;;5.10;2.60;;;11.70;99.90;;;;;;4970446;28;20386;-55
2023/11/19 08:29:21;;;;;;;5.15;2.15;;;11.80;99.90;;;;;;4970416;28;20058;-51
2023/11/19 08:31:46;;;;;;;3.67;2.20;;;11.90;99.90;;;;;;4970185;28;20019;-49
2023/11/19 08:34:12;;;;;;;3.25;2.33;;;11.90;99.90;;;;;;4970340;28;20030;-50
2023/11/19 08:36:38;;;;;;;3.88;2.67;;;12.00;99.90;;;;;;4970241;28;20186;-51
2023/11/19 08:39:03;;;;;;;2.10;1.90;;;12.10;99.90;;;;;;4970232;28;20058;-48
2023/11/19 08:41:29;;;;;;;5.38;1.92;;;12.10;99.90;;;;;;4970217;28;20109;-50
2023/11/19 08:43:54;;;;;;;8.40;2.10;;;12.20;99.90;;;;;;4970083;28;20027;-50
2023/11/19 08:46:20;;;;;;;6.53;1.95;;;12.20;99.90;;;;;;4970149;28;20092;-50
2023/11/19 08:48:46;;;;;;;3.90;2.00;;;12.20;99.90;;;;;;4970021;28;20506;-49
2023/11/19 08:51:12;;;;;;;3.03;1.77;;;12.20;99.90;;;;;;4969661;28;20031;-53
2023/11/19 08:53:37;;;;;;;2.58;1.95;;;12.30;99.90;;;;;;4960436;28;20027;-47
2023/11/19 08:56:03;;;;;;;2.20;2.00;;;12.20;99.90;;;;;;4969899;28;20050;-46
2023/11/19 08:58:29;;;;;;;2.65;2.00;;;12.20;99.90;;;;;;4970370;28;20111;-46
2023/11/19 09:00:55;;;;;;;4.80;1.90;;;12.30;99.90;;;;;;4970535;28;20490;-48
2023/11/19 09:03:21;;;;;;;2.67;1.70;;;12.20;99.90;;;;;;4973175;28;20153;-51
2023/11/19 09:05:47;;;;;;;3.28;1.45;;;12.30;99.90;;;;;;4973408;28;20109;-51
2023/11/19 09:08:12;;;;;;;2.80;1.70;;;12.30;99.90;;;;;;4973080;28;20031;-49
2023/11/19 09:10:38;;;;;;;1.73;1.58;;;12.30;99.90;;;;;;4973004;28;20498;-48
2023/11/19 09:13:03;;;;;;;6.22;1.80;;;12.40;99.90;;;;;;4973254;28;20035;-48
2023/11/19 09:15:29;;;;;;;3.75;1.83;;;12.40;99.90;;;;;;4972975;28;20027;-50
2023/11/19 09:17:56;;;;;;;5.15;1.50;;;12.50;99.90;;;;;;4973484;28;20125;-49
2023/11/19 09:20:21;;;;;;;3.58;2.20;;;12.50;99.90;;;;;;4973014;28;20027;-49
2023/11/19 09:22:47;;;;;;;6.22;2.13;;;12.50;99.90;;;;;;4972705;28;20457;-49
2023/11/19 09:25:16;;;;;;;3.10;1.20;;;13.10;99.90;;;;;;4973024;28;20053;-50
2023/11/19 09:27:42;;;;;;;4.85;1.50;;;14.00;99.90;;;;;;4973049;28;20421;-50
2023/11/19 09:30:09;;;;;;;3.25;1.38;;;15.00;99.90;;;;;;4972821;28;20027;-51
2023/11/19 09:32:34;;;;;;;4.18;1.98;;;15.50;99.90;;;;;;4971518;28;20034;-53
2023/11/19 09:35:00;;;;;;;4.53;1.30;;;15.30;99.90;;;;;;4971323;28;20026;-52
2023/11/19 09:37:26;;;;;;;5.22;1.67;;;14.90;99.90;;;;;;4972374;28;20018;-49
2023/11/19 09:39:53;;;;;;;5.00;1.45;;;14.60;99.90;;;;;;4968584;28;20483;-49
2023/11/19 09:42:19;;;;;;;2.20;1.25;;;14.20;99.90;;;;;;4969830;28;20447;-48
2023/11/19 09:44:46;;;;;;;4.38;1.30;;;13.90;99.90;;;;;;4969088;28;20118;-50
2023/11/19 09:47:12;;;;;;;7.75;1.67;;;13.70;99.90;;;;;;4969995;28;20055;-49
2023/11/19 09:49:38;;;;;;;5.68;1.77;;;13.60;99.90;;;;;;4972981;28;20031;-47
2023/11/19 09:52:04;;;;;;;7.20;1.40;;;13.50;99.90;;;;;;4972994;28;20054;-49
2023/11/19 09:54:30;;;;;;;6.03;1.67;;;13.40;99.90;;;;;;4972213;28;20054;-52
2023/11/19 09:57:02;;;;;;;10.65;2.45;;;13.40;99.90;;;;;;4972121;28;20039;-49
2023/11/19 09:59:28;;;;;;;8.48;1.83;;;13.30;99.90;;;;;;4972727;28;20482;-49
2023/11/19 10:01:56;;;;;;;6.25;1.98;;;13.20;99.90;;;;;;4972452;28;20031;-51
2023/11/19 10:04:22;;;;;;;6.20;1.60;;;13.20;99.90;;;;;;4970924;28;20091;-47
2023/11/19 10:06:49;;;;;;;4.60;1.52;;;13.10;99.90;;;;;;4972268;28;20034;-52
2023/11/19 10:09:15;;;;;;;5.88;1.65;;;13.10;99.90;;;;;;4971971;28;20053;-50
2023/11/19 10:11:40;;;;;;;10.80;1.98;;;13.00;99.90;;;;;;4971807;28;20585;-48
2023/11/19 10:14:06;;;;;;;6.15;1.55;;;13.00;99.90;;;;;;4970062;28;20025;-48
2023/11/19 10:16:34;;;;;;;5.25;1.70;;;13.00;99.90;;;;;;4970479;28;20054;-52
2023/11/19 10:19:00;;;;;;;3.90;1.50;;;13.00;99.90;;;;;;4970678;28;20023;-49
2023/11/19 10:21:27;;;;;;;4.72;1.45;;;12.90;99.90;;;;;;4970537;28;20497;-53
2023/11/19 10:23:56;;;;;;;6.45;1.50;;;12.90;99.90;;;;;;4972289;28;20494;-50
2023/11/19 10:26:22;;;;;;;5.25;2.03;;;13.20;99.90;;;;;;4972203;28;20076;-51
2023/11/19 10:28:48;;;;;;;7.95;2.22;;;12.90;99.90;;;;;;4970932;28;20372;-50
2023/11/19 10:31:18;;;;;;;6.00;1.70;;;12.90;99.90;;;;;;4971413;28;20019;-53
2023/11/19 10:33:44;;;;;;;7.18;2.10;;;12.90;99.90;;;;;;4971906;28;20026;-48
2023/11/19 10:36:14;;;;;;;9.45;2.15;;;13.00;99.90;;;;;;4971436;28;20071;-49
2023/11/19 10:38:40;;;;;;;6.15;1.55;;;13.00;99.90;;;;;;4970934;28;20379;-49
2023/11/19 10:41:06;;;;;;;6.25;1.70;;;13.10;99.90;;;;;;4971733;28;20508;-51
2023/11/19 10:43:45;;;;;;;6.80;1.58;;;13.20;99.90;;;;;;4970233;28;20076;-47
2023/11/19 10:46:12;;;;;;;7.22;1.70;;;13.20;99.90;;;;;;4971231;28;20023;-49
2023/11/19 10:48:38;;;;;;;8.82;2.97;;;13.30;99.90;;;;;;4971004;28;20488;-53
2023/11/19 10:51:10;;;;;;;10.43;2.65;;;13.40;99.90;;;;;;4971400;28;20121;-50
2023/11/19 10:53:38;;;;;;;3.92;1.92;;;13.60;99.90;;;;;;4970136;28;20031;-50
2023/11/19 10:56:10;;;;;;;5.40;2.50;;;13.70;99.90;;;;;;4969552;28;20034;-49
2023/11/19 10:58:37;;;;;;;9.77;1.80;;;13.80;99.90;;;;;;4971425;28;20062;-49
2023/11/19 11:01:13;;;;;;;6.05;1.60;;;13.90;99.90;;;;;;4970809;28;20052;-52
2023/11/19 11:03:40;;;;;;;3.75;1.60;;;14.00;99.90;;;;;;4970409;28;20038;-54
2023/11/19 11:06:06;;;;;;;4.93;1.85;;;14.10;99.90;;;;;;4971360;28;20031;-53
2023/11/19 11:08:36;;;;;;;7.53;2.28;;;14.10;99.90;;;;;;4969567;28;20026;-53
2023/11/19 11:11:04;;;;;;;2.25;1.30;;;14.20;99.90;;;;;;4969828;28;20035;-55
2023/11/19 11:13:31;;;;;;;10.45;1.67;;;14.20;99.90;;;;;;4970527;28;20026;-53
2023/11/19 11:16:00;;;;;;;8.02;1.80;;;14.40;99.90;;;;;;4969518;28;20068;-48
2023/11/19 11:18:26;;;;;;;5.32;1.75;;;14.60;99.90;;;;;;4967130;28;20062;-53
2023/11/19 11:20:56;;;;;;;7.15;2.97;;;14.80;99.90;;;;;;4970515;28;20031;-49
2023/11/19 11:23:46;;;;;;;20.65;2.70;;;14.90;99.90;;;;;;4968960;28;20498;-55
2023/11/19 11:26:52;;;;;;;5.15;1.48;;;15.10;99.90;;;;;;4971022;28;20406;-49
2023/11/19 11:29:31;;;;;;;11.27;2.95;;;15.20;99.90;;;;;;4970227;28;20038;-54
2023/11/19 11:32:13;;;;;;;7.88;1.73;;;15.40;99.90;;;;;;4971033;28;20375;-52
2023/11/19 11:34:57;;;;;;;6.65;1.80;;;15.50;99.90;;;;;;4969637;28;20403;-52
2023/11/19 11:37:31;;;;;;;23.52;13.55;;;15.50;99.90;;;;;;4969585;28;20491;-52
2023/11/19 11:39:59;;;;;;;8.07;3.88;;;15.60;99.90;;;;;;4970550;28;20034;-51
2023/11/19 11:42:27;;;;;;;4.10;2.22;;;15.60;99.90;;;;;;4969764;28;20035;-56
2023/11/19 11:45:08;;;;;;;6.95;1.38;;;15.60;99.90;;;;;;4969897;28;20399;-51
2023/11/19 11:47:42;;;;;;;5.78;1.20;;;15.50;99.90;;;;;;4970217;28;20042;-46
2023/11/19 11:50:09;;;;;;;4.45;1.13;;;15.40;99.90;;;;;;4970888;28;20019;-47
2023/11/19 11:55:26;;;;;;;7.18;1.27;;;15.20;99.90;;;;;;4971415;28;20118;-47
2023/11/19 11:57:51;;;;;;;5.30;1.15;;;15.20;99.90;;;;;;4966812;28;20094;-49
2023/11/19 12:00:29;;;;;;;6.57;1.23;;;15.00;99.90;;;;;;4951422;28;20115;-52
2023/11/19 12:02:56;;;;;;;1.40;1.30;;;14.90;99.90;;;;;;4951298;28;20441;-52
2023/11/19 12:05:22;;;;;;;5.70;1.40;;;14.80;99.90;;;;;;4968253;28;20462;-50
2023/11/19 12:08:01;;;;;;;6.57;2.00;;;14.80;99.90;;;;;;4970269;28;20067;-53
2023/11/19 12:10:31;;;;;;;9.40;1.52;;;14.80;99.90;;;;;;4970677;28;20502;-51
2023/11/19 12:13:00;;;;;;;10.07;2.00;;;14.80;99.90;;;;;;4970277;28;20037;-51
2023/11/19 12:15:27;;;;;;;5.68;1.70;;;14.70;99.90;;;;;;4970489;28;20027;-52
2023/11/19 12:17:54;;;;;;;7.00;1.73;;;14.70;99.90;;;;;;4970667;28;20169;-47
2023/11/19 12:20:21;;;;;;;9.77;2.10;;;14.80;99.90;;;;;;4970598;28;20375;-49
2023/11/19 12:22:49;;;;;;;3.53;1.27;;;14.80;99.90;;;;;;4969253;28;20102;-49
2023/11/19 12:25:16;;;;;;;6.07;1.38;;;14.90;99.90;;;;;;4969823;28;20022;-51
2023/11/19 12:28:04;;;;;;;10.15;1.80;;;14.80;99.90;;;;;;4969703;28;20031;-50
2023/11/19 12:30:29;;;;;;;5.25;2.25;;;14.90;99.90;;;;;;4970466;28;20394;-51
2023/11/19 12:32:55;;;;;;;7.88;2.70;;;14.90;99.90;;;;;;4968919;28;20022;-53
2023/11/19 12:35:22;;;;;;;4.40;1.23;;;15.00;99.90;;;;;;4968270;28;20455;-55
2023/11/19 12:37:49;;;;;;;9.15;1.98;;;15.00;99.90;;;;;;4968973;28;20077;-49
2023/11/19 12:40:32;;;;;;;6.45;1.90;;;15.00;99.90;;;;;;4969835;28;20011;-49
2023/11/19 12:42:58;;;;;;;8.27;1.55;;;15.00;99.90;;;;;;4970094;28;20019;-49
2023/11/19 12:45:24;;;;;;;6.68;1.58;;;15.00;99.90;;;;;;4968356;28;20030;-53
2023/11/19 12:48:03;;;;;;;7.82;1.58;;;15.00;99.90;;;;;;4969568;28;20023;-47
2023/11/19 12:50:29;;;;;;;9.48;2.15;;;15.00;99.90;;;;;;4969155;28;20096;-53
2023/11/19 12:52:58;;;;;;;6.70;1.83;;;15.10;99.90;;;;;;4969239;28;20070;-50
2023/11/19 12:55:28;;;;;;;11.85;1.80;;;15.00;99.90;;;;;;4969928;28;20050;-50